< < Back
Terminal Aerodrome Forecast


Current Version              Previous Versions:   1  2  3  4  5  6  7  8  9  

Terminal Aerodrome Forecast

118
FTUS44 KOHX 220500
TAFCSV
TAF
KCSV 220534Z 2206/2306 14003KT P6SM OVC014
     FM221600 15008KT P6SM OVC015
     FM230300 16010G18KT 3SM -RA BR OVC007=

Latest METAR

161
SAUS70 KWBC 220600
MTRCSV
METAR KCSV 220553Z AUTO VRB03KT 10SM OVC013 07/03 A3004 RMK AO2 SLP172
T00720028 10083 20067 401001028 58015


USA.gov is the U.S. government's official web portal to all federal, state and local government web resources and services.